Time;durP1;ratioP1;P1;durP2;ratioP2;P2;SDS_P1;SDS_P2;PMS_P1;PMS_P2;Temp;Humidity;BMP_temperature;BMP_pressure;BME280_temperature;BME280_humidity;BME280_pressure;Samples;Min_cycle;Max_cycle;Signal;HPM_P1;HPM_P2
2022/05/07 00:00:33;;;;;;;21.35;10.63;;;;;;;;;;5050166;28;20533;-77
2022/05/07 00:02:59;;;;;;;14.80;11.25;;;;;;;;;;5033400;28;20074;-75
2022/05/07 00:05:24;;;;;;;15.10;11.30;;;;;;;;;;5050742;28;20453;-76
2022/05/07 00:07:51;;;;;;;13.95;11.15;;;;;;;;;;5051452;28;20119;-76
2022/05/07 00:10:17;;;;;;;14.13;10.85;;;;;;;;;;5051607;28;20526;-77
2022/05/07 00:12:42;;;;;;;22.35;11.30;;;;;;;;;;5051167;28;20076;-76
2022/05/07 00:15:09;;;;;;;17.33;11.48;;;;;;;;;;5051015;28;20060;-78
2022/05/07 00:20:19;;;;;;;16.30;11.43;;;;;;;;;;5051069;28;20123;-78
2022/05/07 00:22:45;;;;;;;17.50;11.52;;;;;;;;;;5051165;28;20493;-77
2022/05/07 00:25:11;;;;;;;17.05;12.02;;;;;;;;;;5033579;28;20040;-77
2022/05/07 00:27:37;;;;;;;16.15;11.70;;;;;;;;;;5033284;28;20429;-75
2022/05/07 00:30:06;;;;;;;23.25;12.50;;;;;;;;;;5049579;28;20115;-77
2022/05/07 00:32:32;;;;;;;16.50;11.77;;;;;;;;;;5051229;28;20493;-78
2022/05/07 00:34:58;;;;;;;21.30;11.52;;;;;;;;;;5033403;28;20033;-77
2022/05/07 00:37:24;;;;;;;17.70;12.57;;;;;;;;;;5051445;28;20036;-76
2022/05/07 00:39:50;;;;;;;17.70;11.85;;;;;;;;;;5050940;28;20472;-78
2022/05/07 00:42:16;;;;;;;17.83;12.02;;;;;;;;;;5032817;28;20041;-78
2022/05/07 00:44:42;;;;;;;17.90;12.00;;;;;;;;;;5051120;28;20036;-78
2022/05/07 00:47:15;;;;;;;18.13;11.82;;;;;;;;;;5050595;28;20021;-78
2022/05/07 00:49:43;;;;;;;16.23;11.75;;;;;;;;;;5051909;28;20047;-78
2022/05/07 00:52:09;;;;;;;20.73;12.38;;;;;;;;;;5033718;28;20465;-78
2022/05/07 00:54:35;;;;;;;18.92;11.57;;;;;;;;;;5050482;28;20021;-77
2022/05/07 00:57:02;;;;;;;14.13;10.70;;;;;;;;;;5050452;28;20546;-77
2022/05/07 00:59:27;;;;;;;20.95;11.95;;;;;;;;;;5032595;28;20089;-77
2022/05/07 01:01:53;;;;;;;18.40;12.00;;;;;;;;;;5049957;28;20109;-78
2022/05/07 01:04:18;;;;;;;19.25;12.27;;;;;;;;;;5050766;28;20107;-77
2022/05/07 01:06:44;;;;;;;23.73;12.50;;;;;;;;;;5049691;28;20106;-75
2022/05/07 01:09:11;;;;;;;16.30;12.05;;;;;;;;;;5051286;28;20108;-75
2022/05/07 01:11:36;;;;;;;15.05;11.75;;;;;;;;;;5050798;28;20111;-78
2022/05/07 01:14:02;;;;;;;16.27;12.23;;;;;;;;;;5048926;28;20148;-77
2022/05/07 01:16:28;;;;;;;18.85;12.52;;;;;;;;;;5049087;28;20035;-78
2022/05/07 01:18:53;;;;;;;21.52;12.98;;;;;;;;;;5050473;28;20024;-78
2022/05/07 01:21:19;;;;;;;17.05;11.95;;;;;;;;;;5048921;28;20013;-76
2022/05/07 01:23:47;;;;;;;16.20;12.10;;;;;;;;;;5050291;28;20028;-78
2022/05/07 01:26:13;;;;;;;18.77;12.25;;;;;;;;;;5049190;28;20025;-77
2022/05/07 01:28:40;;;;;;;14.05;11.32;;;;;;;;;;5050541;28;20389;-77
2022/05/07 01:31:06;;;;;;;20.70;12.65;;;;;;;;;;5050114;28;20096;-77
2022/05/07 01:33:33;;;;;;;19.27;12.95;;;;;;;;;;5050979;28;20044;-77
2022/05/07 01:36:03;;;;;;;17.70;13.38;;;;;;;;;;5049539;28;20569;-78
2022/05/07 01:38:29;;;;;;;22.50;13.98;;;;;;;;;;5048921;28;20029;-77
2022/05/07 01:40:55;;;;;;;23.58;13.43;;;;;;;;;;5051056;28;20024;-76
2022/05/07 01:43:21;;;;;;;18.13;13.85;;;;;;;;;;5036634;28;20038;-76
2022/05/07 01:45:46;;;;;;;21.08;13.70;;;;;;;;;;5053040;28;20024;-76
2022/05/07 01:48:12;;;;;;;22.70;14.18;;;;;;;;;;5052827;28;20039;-77
2022/05/07 01:50:42;;;;;;;24.35;14.60;;;;;;;;;;5053882;28;20029;-78
2022/05/07 01:53:09;;;;;;;21.25;14.65;;;;;;;;;;5052540;28;20029;-78
2022/05/07 01:55:35;;;;;;;22.70;14.77;;;;;;;;;;5054307;28;20028;-78
2022/05/07 01:58:01;;;;;;;23.13;15.52;;;;;;;;;;5054136;28;20032;-79
2022/05/07 02:00:27;;;;;;;21.08;14.55;;;;;;;;;;5053804;28;20025;-77
2022/05/07 02:02:52;;;;;;;21.35;14.90;;;;;;;;;;5053485;28;20021;-76
2022/05/07 02:05:18;;;;;;;28.15;17.10;;;;;;;;;;5051964;28;20029;-77
2022/05/07 02:07:44;;;;;;;21.00;14.68;;;;;;;;;;5053921;28;20024;-76
2022/05/07 02:10:10;;;;;;;21.38;13.95;;;;;;;;;;5051973;28;20021;-75
2022/05/07 02:12:37;;;;;;;22.17;14.50;;;;;;;;;;5053845;28;20028;-75
2022/05/07 02:15:03;;;;;;;24.73;15.05;;;;;;;;;;5052030;28;20079;-78
2022/05/07 02:17:29;;;;;;;25.45;16.38;;;;;;;;;;5053738;28;20033;-78
2022/05/07 02:19:54;;;;;;;24.77;14.82;;;;;;;;;;5035283;28;20027;-76
2022/05/07 02:22:20;;;;;;;27.40;15.30;;;;;;;;;;5035262;28;20365;-79
2022/05/07 02:24:46;;;;;;;21.08;15.35;;;;;;;;;;5052828;28;20037;-76
2022/05/07 02:27:12;;;;;;;24.88;15.82;;;;;;;;;;5035175;28;20035;-78
2022/05/07 02:29:37;;;;;;;28.77;16.33;;;;;;;;;;5053235;28;20039;-78
2022/05/07 02:32:03;;;;;;;27.33;15.32;;;;;;;;;;5051836;28;20053;-79
2022/05/07 02:34:33;;;;;;;25.88;16.52;;;;;;;;;;5035689;28;20128;-78
2022/05/07 02:36:59;;;;;;;26.73;16.00;;;;;;;;;;5053678;28;20037;-77
2022/05/07 02:39:25;;;;;;;26.77;16.27;;;;;;;;;;5053377;28;20036;-77
2022/05/07 02:44:36;;;;;;;22.80;16.15;;;;;;;;;;5053597;28;20396;-78
2022/05/07 02:47:02;;;;;;;21.65;15.55;;;;;;;;;;5035101;28;20033;-75
2022/05/07 02:49:27;;;;;;;24.38;17.23;;;;;;;;;;5051863;28;20531;-77
2022/05/07 02:51:53;;;;;;;24.45;16.05;;;;;;;;;;5052082;28;20060;-76
2022/05/07 02:54:19;;;;;;;26.10;16.77;;;;;;;;;;5052561;28;20044;-78
2022/05/07 02:56:44;;;;;;;26.77;16.40;;;;;;;;;;5053208;28;20314;-78
2022/05/07 02:59:09;;;;;;;26.98;16.73;;;;;;;;;;5052475;28;20416;-77
2022/05/07 03:01:35;;;;;;;24.00;16.38;;;;;;;;;;5052684;28;20063;-76
2022/05/07 03:04:00;;;;;;;30.85;18.38;;;;;;;;;;5051579;28;20428;-78
2022/05/07 03:06:26;;;;;;;23.63;16.75;;;;;;;;;;5051284;28;20028;-78
2022/05/07 03:08:52;;;;;;;25.85;17.52;;;;;;;;;;5051749;28;20060;-76
2022/05/07 03:11:18;;;;;;;24.45;16.52;;;;;;;;;;5052502;28;20079;-78
2022/05/07 03:13:43;;;;;;;24.98;16.75;;;;;;;;;;5052685;28;20054;-77
2022/05/07 03:16:09;;;;;;;29.33;17.42;;;;;;;;;;5051453;28;20559;-78
2022/05/07 03:18:35;;;;;;;22.80;15.68;;;;;;;;;;5050855;28;20083;-77
2022/05/07 03:21:01;;;;;;;27.35;16.80;;;;;;;;;;5050231;28;20067;-77
2022/05/07 03:23:27;;;;;;;25.55;16.70;;;;;;;;;;5052391;28;20540;-77
2022/05/07 03:25:53;;;;;;;22.77;15.80;;;;;;;;;;5051193;28;20123;-77
2022/05/07 03:28:19;;;;;;;23.13;16.35;;;;;;;;;;5052757;28;20106;-75
2022/05/07 03:30:45;;;;;;;26.38;16.05;;;;;;;;;;5052746;28;20029;-78
2022/05/07 03:33:10;;;;;;;28.70;16.10;;;;;;;;;;5052366;28;20049;-78
2022/05/07 03:35:36;;;;;;;24.80;16.20;;;;;;;;;;5034148;28;20032;-74
2022/05/07 03:38:02;;;;;;;28.00;17.42;;;;;;;;;;5050904;28;20033;-78
2022/05/07 03:40:28;;;;;;;25.27;15.95;;;;;;;;;;5034320;28;20029;-77
2022/05/07 03:42:54;;;;;;;26.75;16.77;;;;;;;;;;5051960;28;20028;-75
2022/05/07 03:45:20;;;;;;;24.67;16.35;;;;;;;;;;5052669;28;20203;-79
2022/05/07 03:47:46;;;;;;;28.60;17.73;;;;;;;;;;5052731;28;20028;-78
2022/05/07 03:50:12;;;;;;;26.85;17.10;;;;;;;;;;5051412;28;20134;-77
2022/05/07 03:55:22;;;;;;;28.40;18.77;;;;;;;;;;5051858;28;20078;-79
2022/05/07 03:57:48;;;;;;;30.23;20.08;;;;;;;;;;5051605;28;20024;-75
2022/05/07 04:00:14;;;;;;;28.80;18.40;;;;;;;;;;5051424;28;20031;-77
2022/05/07 04:02:40;;;;;;;27.60;18.00;;;;;;;;;;5051334;28;20319;-76
2022/05/07 04:05:06;;;;;;;29.17;18.50;;;;;;;;;;5033498;28;20032;-77
2022/05/07 04:07:32;;;;;;;28.17;18.80;;;;;;;;;;5033516;28;20032;-78
2022/05/07 04:09:57;;;;;;;25.02;17.60;;;;;;;;;;5050019;28;20209;-78
2022/05/07 04:12:23;;;;;;;25.40;17.60;;;;;;;;;;5051153;28;20029;-76
2022/05/07 04:14:49;;;;;;;25.17;18.08;;;;;;;;;;5050740;28;20475;-79
2022/05/07 04:17:15;;;;;;;31.45;18.17;;;;;;;;;;5051755;28;20567;-77
2022/05/07 04:19:40;;;;;;;28.20;17.55;;;;;;;;;;5051922;28;20032;-78
2022/05/07 04:22:07;;;;;;;25.50;16.75;;;;;;;;;;5051835;28;20036;-76
2022/05/07 04:24:33;;;;;;;25.77;17.65;;;;;;;;;;5052007;28;20029;-77
2022/05/07 04:27:02;;;;;;;23.25;16.85;;;;;;;;;;5052009;28;20029;-77
2022/05/07 04:29:28;;;;;;;26.80;17.50;;;;;;;;;;5051734;28;20108;-78
2022/05/07 04:31:53;;;;;;;23.02;16.00;;;;;;;;;;5051727;28;20448;-77
2022/05/07 04:34:22;;;;;;;24.58;16.45;;;;;;;;;;5050522;28;20041;-77
2022/05/07 04:36:47;;;;;;;20.88;16.17;;;;;;;;;;5049524;28;20459;-79
2022/05/07 04:39:13;;;;;;;27.95;17.13;;;;;;;;;;5050820;28;20112;-79
2022/05/07 04:41:38;;;;;;;25.63;17.08;;;;;;;;;;5049943;28;20083;-79
2022/05/07 04:44:05;;;;;;;26.35;16.67;;;;;;;;;;5033762;28;20115;-76
2022/05/07 04:46:30;;;;;;;22.15;16.58;;;;;;;;;;5050959;28;20037;-76
2022/05/07 04:48:56;;;;;;;22.58;17.00;;;;;;;;;;5049692;28;20464;-76
2022/05/07 04:51:21;;;;;;;25.00;16.67;;;;;;;;;;5050609;28;20078;-76
2022/05/07 04:53:46;;;;;;;27.35;16.52;;;;;;;;;;5050100;28;20021;-78
2022/05/07 04:56:12;;;;;;;26.92;17.02;;;;;;;;;;5050985;28;20029;-78
2022/05/07 04:58:37;;;;;;;23.27;16.63;;;;;;;;;;5051292;28;20024;-76
2022/05/07 05:01:03;;;;;;;23.17;17.05;;;;;;;;;;5033364;28;20086;-77
2022/05/07 05:03:28;;;;;;;23.50;16.55;;;;;;;;;;5049647;28;20025;-79
2022/05/07 05:05:54;;;;;;;21.35;15.75;;;;;;;;;;5050200;28;20040;-77
2022/05/07 05:08:19;;;;;;;26.30;16.83;;;;;;;;;;5050920;28;20111;-78
2022/05/07 05:10:46;;;;;;;22.40;16.52;;;;;;;;;;5050425;28;20032;-78
2022/05/07 05:13:12;;;;;;;25.63;18.00;;;;;;;;;;5050956;28;20025;-77
2022/05/07 05:15:37;;;;;;;25.25;16.55;;;;;;;;;;5053002;28;20112;-75
2022/05/07 05:18:03;;;;;;;26.88;17.85;;;;;;;;;;5053903;28;20029;-77
2022/05/07 05:20:29;;;;;;;24.65;17.88;;;;;;;;;;5054939;28;20492;-78
2022/05/07 05:22:55;;;;;;;24.52;16.58;;;;;;;;;;5054536;28;20099;-77
2022/05/07 05:25:21;;;;;;;28.30;17.73;;;;;;;;;;5037266;28;20033;-78
2022/05/07 05:27:47;;;;;;;28.85;17.10;;;;;;;;;;5054349;28;20029;-77
2022/05/07 05:30:13;;;;;;;28.20;17.15;;;;;;;;;;5055012;28;20032;-79
2022/05/07 05:32:39;;;;;;;22.65;17.35;;;;;;;;;;5037542;28;20136;-78
2022/05/07 05:35:05;;;;;;;25.58;17.20;;;;;;;;;;5053908;28;20060;-77
2022/05/07 05:37:31;;;;;;;26.38;17.83;;;;;;;;;;5037463;28;20482;-78
2022/05/07 05:39:57;;;;;;;23.65;16.38;;;;;;;;;;5038370;28;20056;-78
2022/05/07 05:42:22;;;;;;;28.10;17.48;;;;;;;;;;5037625;28;20021;-78
2022/05/07 05:44:48;;;;;;;26.08;17.73;;;;;;;;;;5036810;28;20233;-78
2022/05/07 05:47:14;;;;;;;28.40;17.30;;;;;;;;;;5054562;28;20033;-79
2022/05/07 05:49:39;;;;;;;27.27;18.27;;;;;;;;;;5054607;28;20036;-77
2022/05/07 05:52:06;;;;;;;24.17;18.38;;;;;;;;;;5054714;28;20028;-77
2022/05/07 05:54:32;;;;;;;32.72;18.05;;;;;;;;;;5054408;28;20044;-76
2022/05/07 05:56:58;;;;;;;33.25;18.55;;;;;;;;;;5036701;28;20028;-76
2022/05/07 05:59:25;;;;;;;26.58;18.80;;;;;;;;;;5053194;28;20060;-77
2022/05/07 06:01:51;;;;;;;28.67;18.30;;;;;;;;;;5054653;28;20040;-80
2022/05/07 06:04:17;;;;;;;24.38;18.27;;;;;;;;;;5055092;28;20107;-78
2022/05/07 06:06:46;;;;;;;33.08;19.35;;;;;;;;;;5054242;28;20158;-77
2022/05/07 06:09:11;;;;;;;23.13;18.17;;;;;;;;;;5035924;28;20028;-79
2022/05/07 06:11:37;;;;;;;27.23;18.45;;;;;;;;;;5052788;28;20455;-77
2022/05/07 06:14:03;;;;;;;40.78;21.67;;;;;;;;;;5052105;28;20602;-77
2022/05/07 06:16:29;;;;;;;26.48;17.58;;;;;;;;;;5053542;28;20388;-75
2022/05/07 06:18:54;;;;;;;23.45;17.80;;;;;;;;;;5054222;28;20465;-77
2022/05/07 06:21:20;;;;;;;27.08;18.88;;;;;;;;;;5051700;28;20337;-77
2022/05/07 06:23:45;;;;;;;24.80;17.88;;;;;;;;;;5051841;28;20024;-76
2022/05/07 06:28:55;;;;;;;26.13;18.00;;;;;;;;;;5053625;28;20036;-78
2022/05/07 06:31:21;;;;;;;26.50;17.88;;;;;;;;;;5053740;28;20431;-77
2022/05/07 06:33:46;;;;;;;25.10;17.63;;;;;;;;;;5053563;28;20056;-78
2022/05/07 06:36:12;;;;;;;26.48;17.60;;;;;;;;;;5053364;28;20029;-79
2022/05/07 06:38:38;;;;;;;31.92;16.85;;;;;;;;;;5052999;28;20115;-77
2022/05/07 06:41:05;;;;;;;30.30;16.92;;;;;;;;;;5054031;28;20063;-78
2022/05/07 06:43:32;;;;;;;32.40;17.92;;;;;;;;;;5052214;28;20037;-77
2022/05/07 06:45:59;;;;;;;27.63;17.70;;;;;;;;;;5052928;28;20082;-76
2022/05/07 06:48:26;;;;;;;24.23;17.15;;;;;;;;;;5052900;28;20029;-77
2022/05/07 06:50:53;;;;;;;28.58;19.17;;;;;;;;;;5053011;28;20484;-75
2022/05/07 06:53:18;;;;;;;25.60;18.30;;;;;;;;;;5052629;28;20029;-76
2022/05/07 06:55:56;;;;;;;30.45;18.50;;;;;;;;;;5051747;28;20028;-78
2022/05/07 06:58:34;;;;;;;26.05;17.55;;;;;;;;;;5050965;28;20029;-78
2022/05/07 07:01:04;;;;;;;26.75;17.50;;;;;;;;;;5052517;28;20032;-78
2022/05/07 07:03:30;;;;;;;26.00;18.25;;;;;;;;;;5052039;28;20025;-75
2022/05/07 07:05:57;;;;;;;26.98;18.42;;;;;;;;;;5051697;28;20025;-78
2022/05/07 07:08:24;;;;;;;26.80;17.40;;;;;;;;;;5051438;28;20106;-77
2022/05/07 07:10:50;;;;;;;24.75;18.13;;;;;;;;;;5053149;28;20033;-76
2022/05/07 07:13:18;;;;;;;35.97;18.95;;;;;;;;;;5052864;28;20094;-77
2022/05/07 07:15:44;;;;;;;25.25;17.80;;;;;;;;;;5051488;28;20064;-77
2022/05/07 07:18:10;;;;;;;27.45;18.17;;;;;;;;;;5051712;28;20166;-77
2022/05/07 07:20:41;;;;;;;24.10;16.52;;;;;;;;;;5051164;28;20033;-77
2022/05/07 07:23:12;;;;;;;29.05;18.02;;;;;;;;;;5053092;28;20017;-77
2022/05/07 07:25:39;;;;;;;26.15;17.13;;;;;;;;;;5051532;28;20020;-77
2022/05/07 07:28:05;;;;;;;33.35;18.48;;;;;;;;;;5034625;28;20053;-80
2022/05/07 07:30:32;;;;;;;30.73;18.65;;;;;;;;;;5051195;28;20025;-79
2022/05/07 07:32:58;;;;;;;30.27;18.05;;;;;;;;;;5034590;28;20049;-76
2022/05/07 07:35:23;;;;;;;26.98;17.95;;;;;;;;;;5052275;28;20482;-79
2022/05/07 07:37:49;;;;;;;29.00;17.02;;;;;;;;;;5034537;28;20021;-77
2022/05/07 07:40:15;;;;;;;30.15;18.52;;;;;;;;;;5050112;28;20020;-78
2022/05/07 07:42:41;;;;;;;32.70;17.10;;;;;;;;;;5034800;28;20047;-76
2022/05/07 07:47:59;;;;;;;25.92;16.98;;;;;;;;;;5052832;28;20031;-78
2022/05/07 07:50:29;;;;;;;26.63;17.23;;;;;;;;;;5051620;28;20598;-78
2022/05/07 07:52:55;;;;;;;34.38;17.40;;;;;;;;;;5033923;28;20056;-79
2022/05/07 07:55:22;;;;;;;25.38;16.75;;;;;;;;;;5052454;28;20033;-79
2022/05/07 07:57:49;;;;;;;19.65;14.93;;;;;;;;;;5050512;28;20044;-77
2022/05/07 08:00:16;;;;;;;30.70;16.77;;;;;;;;;;5034367;28;20025;-77
2022/05/07 08:02:58;;;;;;;32.83;15.73;;;;;;;;;;5051591;28;20096;-78
2022/05/07 08:05:32;;;;;;;27.00;17.23;;;;;;;;;;5050205;28;20017;-78
2022/05/07 08:13:35;;;;;;;25.10;15.73;;;;;;;;;;5051335;28;20036;-78
2022/05/07 08:16:01;;;;;;;23.23;14.43;;;;;;;;;;5034635;28;20021;-78
2022/05/07 08:18:27;;;;;;;30.92;16.45;;;;;;;;;;5051790;28;20021;-81
2022/05/07 08:20:55;;;;;;;27.13;15.70;;;;;;;;;;5050854;28;20171;-77
2022/05/07 08:23:22;;;;;;;26.13;12.98;;;;;;;;;;5050336;28;20053;-78
2022/05/07 08:25:48;;;;;;;18.13;11.43;;;;;;;;;;5032839;28;20404;-79
2022/05/07 08:28:15;;;;;;;20.60;12.70;;;;;;;;;;5033591;28;20047;-77
2022/05/07 08:30:41;;;;;;;20.92;11.90;;;;;;;;;;5033872;28;20099;-78
2022/05/07 08:33:06;;;;;;;23.42;11.77;;;;;;;;;;5051631;28;20497;-77
2022/05/07 08:35:32;;;;;;;20.23;9.73;;;;;;;;;;5049883;28;20029;-79
2022/05/07 08:37:57;;;;;;;15.80;9.40;;;;;;;;;;5051414;28;20393;-77
2022/05/07 08:40:24;;;;;;;13.25;8.90;;;;;;;;;;5051459;28;20476;-77
2022/05/07 08:42:50;;;;;;;18.38;8.95;;;;;;;;;;5051238;28;20086;-77
2022/05/07 08:45:16;;;;;;;15.45;9.07;;;;;;;;;;5050170;28;20481;-78
2022/05/07 08:47:43;;;;;;;14.35;8.20;;;;;;;;;;5049529;28;20049;-79
2022/05/07 08:50:10;;;;;;;13.55;8.57;;;;;;;;;;5049051;28;20117;-76
2022/05/07 08:52:43;;;;;;;15.43;9.65;;;;;;;;;;5051560;28;20391;-77
2022/05/07 08:55:13;;;;;;;12.45;6.97;;;;;;;;;;5049949;28;20045;-75
2022/05/07 08:57:40;;;;;;;12.77;8.27;;;;;;;;;;5051173;28;20048;-77
2022/05/07 09:00:07;;;;;;;15.13;8.10;;;;;;;;;;5049522;28;20025;-77
2022/05/07 09:02:45;;;;;;;15.50;9.07;;;;;;;;;;5050357;28;20024;-77
2022/05/07 09:05:13;;;;;;;11.10;7.40;;;;;;;;;;5032291;28;20028;-80
2022/05/07 09:07:41;;;;;;;15.85;8.25;;;;;;;;;;5048866;28;20052;-79
2022/05/07 09:10:12;;;;;;;11.52;6.78;;;;;;;;;;5049268;28;20025;-77
2022/05/07 09:12:38;;;;;;;11.02;6.55;;;;;;;;;;5032298;28;20032;-78
2022/05/07 09:15:08;;;;;;;9.60;7.18;;;;;;;;;;5049347;28;20040;-78
2022/05/07 09:17:34;;;;;;;5.60;4.47;;;;;;;;;;5049620;28;20485;-77
2022/05/07 09:20:11;;;;;;;11.75;6.70;;;;;;;;;;5048762;28;20032;-78
2022/05/07 09:22:53;;;;;;;11.25;6.53;;;;;;;;;;5050612;28;20024;-78
2022/05/07 09:25:25;;;;;;;10.50;6.15;;;;;;;;;;5049368;28;20061;-78
2022/05/07 09:27:52;;;;;;;11.35;6.38;;;;;;;;;;5049255;28;20517;-78
2022/05/07 09:30:27;;;;;;;7.85;4.00;;;;;;;;;;5050813;28;20033;-76
2022/05/07 09:32:57;;;;;;;8.23;6.05;;;;;;;;;;5049003;28;20057;-78
2022/05/07 09:38:13;;;;;;;3.72;3.15;;;;;;;;;;5051051;28;20064;-76
2022/05/07 09:40:40;;;;;;;6.22;4.82;;;;;;;;;;5032071;28;20040;-76
2022/05/07 09:43:09;;;;;;;9.00;4.75;;;;;;;;;;5049939;28;20021;-77
2022/05/07 09:45:37;;;;;;;4.95;3.72;;;;;;;;;;5050411;28;20032;-76
2022/05/07 09:48:05;;;;;;;7.47;4.85;;;;;;;;;;5050288;28;20032;-77
2022/05/07 09:58:46;;;;;;;5.07;4.03;;;;;;;;;;5050370;28;20116;-78
2022/05/07 10:01:21;;;;;;;12.45;4.43;;;;;;;;;;5031869;28;20120;-78
2022/05/07 10:04:08;;;;;;;6.18;3.45;;;;;;;;;;5052290;28;20108;-77
2022/05/07 10:06:49;;;;;;;9.02;2.60;;;;;;;;;;5052123;28;20033;-77
2022/05/07 10:09:33;;;;;;;5.27;2.37;;;;;;;;;;5052599;28;20413;-77
2022/05/07 10:11:59;;;;;;;5.22;2.08;;;;;;;;;;5052697;28;20258;-78
2022/05/07 10:14:26;;;;;;;4.50;2.78;;;;;;;;;;5052364;28;20414;-78
2022/05/07 10:17:10;;;;;;;5.07;2.40;;;;;;;;;;5052035;28;20036;-77
2022/05/07 10:19:40;;;;;;;3.50;2.53;;;;;;;;;;5052214;28;20043;-76
2022/05/07 10:22:25;;;;;;;4.88;2.00;;;;;;;;;;5054817;28;20021;-78
2022/05/07 10:25:13;;;;;;;2.72;1.65;;;;;;;;;;5054437;28;20029;-78
2022/05/07 10:27:44;;;;;;;3.95;2.80;;;;;;;;;;5052344;28;20021;-78
2022/05/07 10:30:16;;;;;;;5.53;2.70;;;;;;;;;;5035866;28;20103;-78
2022/05/07 10:32:57;;;;;;;4.65;2.60;;;;;;;;;;5051997;28;20352;-77
2022/05/07 10:35:40;;;;;;;5.45;3.38;;;;;;;;;;5053696;28;20112;-79
2022/05/07 10:38:07;;;;;;;5.05;3.10;;;;;;;;;;5036084;28;20020;-79
2022/05/07 10:40:33;;;;;;;4.93;2.80;;;;;;;;;;5052727;28;20116;-79
2022/05/07 10:42:59;;;;;;;6.00;2.30;;;;;;;;;;5052231;28;20547;-77
2022/05/07 10:45:25;;;;;;;5.43;2.38;;;;;;;;;;5052222;28;20025;-78
2022/05/07 10:47:54;;;;;;;2.85;2.33;;;;;;;;;;5035603;28;20710;-78
2022/05/07 10:50:22;;;;;;;6.30;3.00;;;;;;;;;;5052877;28;20403;-76
2022/05/07 10:52:55;;;;;;;7.75;2.80;;;;;;;;;;5050924;28;20025;-77
2022/05/07 10:55:25;;;;;;;7.60;3.28;;;;;;;;;;5052709;28;20036;-78
2022/05/07 10:57:51;;;;;;;6.93;2.70;;;;;;;;;;5052726;28;20028;-78
2022/05/07 11:00:21;;;;;;;5.47;2.58;;;;;;;;;;5035143;28;20380;-77
2022/05/07 11:02:49;;;;;;;6.85;3.10;;;;;;;;;;5053209;28;20381;-76
2022/05/07 11:05:15;;;;;;;5.28;3.38;;;;;;;;;;5034553;28;20033;-79
2022/05/07 11:07:43;;;;;;;5.20;3.28;;;;;;;;;;5051043;28;20036;-78
2022/05/07 11:10:09;;;;;;;6.07;3.67;;;;;;;;;;5052408;28;20322;-77
2022/05/07 11:12:35;;;;;;;10.25;4.13;;;;;;;;;;5050602;28;20037;-77
2022/05/07 11:15:09;;;;;;;5.95;3.42;;;;;;;;;;5051156;28;20036;-78
2022/05/07 11:17:41;;;;;;;6.07;3.35;;;;;;;;;;5051862;28;20029;-77
2022/05/07 11:20:07;;;;;;;5.97;3.60;;;;;;;;;;5051828;28;20111;-78
2022/05/07 11:22:33;;;;;;;11.60;3.45;;;;;;;;;;5034791;28;20382;-80
2022/05/07 11:25:03;;;;;;;5.78;3.60;;;;;;;;;;5053278;28;20025;-77
2022/05/07 11:27:33;;;;;;;4.20;3.38;;;;;;;;;;5051043;28;20413;-77
2022/05/07 11:30:04;;;;;;;5.47;3.70;;;;;;;;;;5051392;28;20035;-79
2022/05/07 11:32:41;;;;;;;7.28;3.45;;;;;;;;;;5052356;28;20041;-79
2022/05/07 11:35:08;;;;;;;5.55;3.80;;;;;;;;;;5052875;28;20029;-79
2022/05/07 11:37:42;;;;;;;8.18;4.47;;;;;;;;;;5052164;28;20108;-79
2022/05/07 11:40:10;;;;;;;6.13;3.72;;;;;;;;;;5052708;28;20024;-76
2022/05/07 11:42:39;;;;;;;7.95;4.25;;;;;;;;;;5051333;28;20028;-76
2022/05/07 11:45:33;;;;;;;6.80;4.35;;;;;;;;;;5052402;28;20028;-77
2022/05/07 11:48:18;;;;;;;6.78;4.40;;;;;;;;;;5051152;28;20515;-78
2022/05/07 11:51:01;;;;;;;6.55;4.85;;;;;;;;;;5052429;28;20021;-78
2022/05/07 11:53:31;;;;;;;9.25;3.90;;;;;;;;;;5052235;28;20071;-78
2022/05/07 11:56:08;;;;;;;6.00;4.43;;;;;;;;;;5051869;28;20025;-78
2022/05/07 11:58:44;;;;;;;6.50;4.40;;;;;;;;;;5034339;28;20139;-80
2022/05/07 12:01:24;;;;;;;5.28;3.53;;;;;;;;;;5050814;28;20032;-76
2022/05/07 12:03:51;;;;;;;6.35;4.00;;;;;;;;;;5051868;28;20017;-79
2022/05/07 12:06:25;;;;;;;4.35;3.63;;;;;;;;;;5051045;28;20480;-79
2022/05/07 12:09:10;;;;;;;7.53;3.97;;;;;;;;;;5051022;28;20029;-77
2022/05/07 12:11:36;;;;;;;8.45;3.78;;;;;;;;;;5034049;28;20024;-77
2022/05/07 12:14:02;;;;;;;8.52;3.08;;;;;;;;;;5034300;28;20167;-77
2022/05/07 12:19:12;;;;;;;8.95;3.60;;;;;;;;;;5052320;28;20039;-77
2022/05/07 12:29:49;;;;;;;7.97;3.25;;;;;;;;;;5050829;28;20035;-76
2022/05/07 12:32:15;;;;;;;4.90;3.40;;;;;;;;;;5051395;28;20037;-78
2022/05/07 12:34:40;;;;;;;4.43;3.00;;;;;;;;;;5050118;28;20397;-76
2022/05/07 12:37:06;;;;;;;9.80;3.45;;;;;;;;;;5033199;28;20033;-77
2022/05/07 12:39:31;;;;;;;5.32;3.30;;;;;;;;;;5050105;28;20502;-78
2022/05/07 12:42:07;;;;;;;6.80;3.90;;;;;;;;;;5033489;28;20040;-77
2022/05/07 12:44:33;;;;;;;6.07;3.75;;;;;;;;;;5050418;28;20166;-79
2022/05/07 12:47:02;;;;;;;5.05;3.47;;;;;;;;;;5049856;28;20044;-77
2022/05/07 12:50:01;;;;;;;3.38;3.05;;;;;;;;;;5033987;28;20116;-82
2022/05/07 12:52:27;;;;;;;7.38;3.70;;;;;;;;;;5050136;28;20096;-79
2022/05/07 12:54:53;;;;;;;7.70;4.38;;;;;;;;;;5051227;28;20160;-78
2022/05/07 12:57:19;;;;;;;7.60;3.60;;;;;;;;;;5051062;28;20138;-77
2022/05/07 12:59:44;;;;;;;4.30;3.50;;;;;;;;;;5051523;28;20025;-78
2022/05/07 13:02:12;;;;;;;4.43;3.47;;;;;;;;;;5052000;28;20025;-78
2022/05/07 13:04:38;;;;;;;4.03;3.40;;;;;;;;;;5051106;28;20060;-79
2022/05/07 13:07:04;;;;;;;6.55;3.80;;;;;;;;;;5051160;28;20082;-78
2022/05/07 13:09:30;;;;;;;7.03;3.15;;;;;;;;;;5049959;28;20048;-80
2022/05/07 13:12:02;;;;;;;5.13;3.22;;;;;;;;;;5033092;28;20512;-78
2022/05/07 13:14:30;;;;;;;6.57;3.35;;;;;;;;;;5050936;28;20021;-78
2022/05/07 13:16:58;;;;;;;5.45;3.10;;;;;;;;;;5050943;28;20061;-78
2022/05/07 13:19:23;;;;;;;9.98;3.60;;;;;;;;;;5051043;28;20025;-76
2022/05/07 13:21:49;;;;;;;10.35;3.80;;;;;;;;;;5046366;28;20084;-77
2022/05/07 13:24:16;;;;;;;6.88;3.72;;;;;;;;;;5031359;28;20049;-77
2022/05/07 13:26:41;;;;;;;6.75;4.10;;;;;;;;;;5029587;28;20037;-77
2022/05/07 13:29:07;;;;;;;12.73;3.20;;;;;;;;;;5030733;28;20040;-77
2022/05/07 13:31:37;;;;;;;7.05;3.40;;;;;;;;;;5045889;28;20057;-77
2022/05/07 13:34:04;;;;;;;4.47;3.13;;;;;;;;;;5028985;28;20041;-77
2022/05/07 13:36:32;;;;;;;5.40;3.92;;;;;;;;;;5029800;28;20029;-77
2022/05/07 13:39:01;;;;;;;6.82;4.38;;;;;;;;;;5034958;28;20025;-76
2022/05/07 13:41:35;;;;;;;11.13;3.63;;;;;;;;;;5035930;28;20036;-78
2022/05/07 13:44:00;;;;;;;14.27;5.97;;;;;;;;;;5035530;28;20032;-76
2022/05/07 13:49:20;;;;;;;4.57;3.40;;;;;;;;;;5035225;28;20374;-77
2022/05/07 13:51:48;;;;;;;4.28;3.72;;;;;;;;;;5034022;28;20043;-77
2022/05/07 13:54:15;;;;;;;7.05;3.80;;;;;;;;;;5035049;28;20021;-79
2022/05/07 13:56:41;;;;;;;5.80;3.33;;;;;;;;;;5050235;28;20037;-78
2022/05/07 13:59:11;;;;;;;6.30;2.92;;;;;;;;;;5035497;28;20029;-79
2022/05/07 14:01:37;;;;;;;11.80;3.25;;;;;;;;;;5034798;28;20037;-78
2022/05/07 14:04:06;;;;;;;10.95;3.22;;;;;;;;;;5016645;28;20025;-77
2022/05/07 14:06:31;;;;;;;5.35;3.40;;;;;;;;;;5033134;28;20029;-78
2022/05/07 14:08:57;;;;;;;7.78;5.30;;;;;;;;;;5035361;28;20108;-78
2022/05/07 14:11:22;;;;;;;6.57;3.65;;;;;;;;;;5033541;28;20021;-78
2022/05/07 14:13:50;;;;;;;9.55;3.60;;;;;;;;;;5034859;28;20025;-79
2022/05/07 14:16:21;;;;;;;6.13;3.38;;;;;;;;;;5033176;28;20044;-78
2022/05/07 14:18:48;;;;;;;6.85;3.35;;;;;;;;;;5034597;28;20072;-78
2022/05/07 14:21:14;;;;;;;5.57;3.08;;;;;;;;;;5034271;28;20037;-77
2022/05/07 14:23:40;;;;;;;3.45;2.92;;;;;;;;;;5035508;28;20025;-78
2022/05/07 14:26:06;;;;;;;7.72;2.95;;;;;;;;;;5052064;28;20499;-77
2022/05/07 14:28:31;;;;;;;5.63;3.50;;;;;;;;;;5053370;28;20032;-79
2022/05/07 14:30:58;;;;;;;5.15;2.75;;;;;;;;;;5052042;28;20120;-78
2022/05/07 14:33:23;;;;;;;4.47;3.20;;;;;;;;;;5054082;28;20124;-79
2022/05/07 14:35:51;;;;;;;7.53;3.33;;;;;;;;;;5035930;28;20433;-79
2022/05/07 14:38:18;;;;;;;4.68;2.88;;;;;;;;;;5053536;28;20040;-79
2022/05/07 14:40:43;;;;;;;7.95;3.55;;;;;;;;;;5035897;28;20468;-78
2022/05/07 14:43:09;;;;;;;17.60;3.38;;;;;;;;;;5035857;28;20048;-78
2022/05/07 14:45:35;;;;;;;4.38;2.50;;;;;;;;;;5054010;28;20032;-78
2022/05/07 14:48:01;;;;;;;4.25;2.90;;;;;;;;;;5052864;28;20020;-78
2022/05/07 14:50:27;;;;;;;5.28;2.50;;;;;;;;;;5051782;28;20032;-78
2022/05/07 14:52:55;;;;;;;6.43;2.72;;;;;;;;;;5052910;28;20106;-78
2022/05/07 14:55:21;;;;;;;5.65;2.45;;;;;;;;;;5053221;28;20035;-78
2022/05/07 14:57:48;;;;;;;5.72;2.92;;;;;;;;;;5053365;28;20020;-77
2022/05/07 15:00:14;;;;;;;3.22;2.33;;;;;;;;;;5051468;28;20548;-76
2022/05/07 15:02:46;;;;;;;6.82;3.15;;;;;;;;;;5051876;28;20052;-77
2022/05/07 15:05:14;;;;;;;4.40;2.53;;;;;;;;;;5053128;28;20028;-77
2022/05/07 15:07:41;;;;;;;4.10;2.50;;;;;;;;;;5053202;28;20086;-76
2022/05/07 15:12:54;;;;;;;2.75;2.38;;;;;;;;;;5053525;28;20070;-78
2022/05/07 15:15:20;;;;;;;11.48;2.92;;;;;;;;;;5051665;28;20042;-77